createdAt,value
2019-04-22T00:00:02.884Z,5.27
2019-04-22T00:02:42.282Z,5.40
2019-04-22T00:05:16.581Z,5.33
2019-04-22T00:08:01.545Z,4.97
2019-04-22T00:10:43.582Z,5.47
2019-04-22T00:13:12.635Z,5.20
2019-04-22T00:15:37.043Z,4.90
2019-04-22T00:20:51.813Z,5.73
2019-04-22T00:23:23.499Z,5.23
2019-04-22T00:25:55.796Z,5.20
2019-04-22T00:28:30.787Z,4.90
2019-04-22T00:31:05.050Z,5.20
2019-04-22T00:33:35.407Z,6.07
2019-04-22T00:36:14.990Z,6.00
2019-04-22T00:38:44.238Z,6.90
2019-04-22T00:41:15.229Z,5.10
2019-04-22T00:43:48.776Z,5.20
2019-04-22T00:46:18.860Z,5.37
2019-04-22T00:49:31.621Z,5.23
2019-04-22T00:51:22.914Z,5.40
2019-04-22T00:53:57.514Z,5.47
2019-04-22T00:56:22.105Z,6.03
2019-04-22T00:58:50.338Z,5.57
2019-04-22T01:01:31.957Z,5.00
2019-04-22T01:04:15.007Z,5.17
2019-04-22T01:06:35.250Z,5.53
2019-04-22T01:09:28.176Z,5.60
2019-04-22T01:11:37.586Z,6.03
2019-04-22T01:14:09.059Z,5.77
2019-04-22T01:16:43.027Z,5.63
2019-04-22T01:19:12.311Z,5.40
2019-04-22T01:21:45.153Z,5.53
2019-04-22T01:24:16.851Z,5.77
2019-04-22T01:26:47.675Z,6.47
2019-04-22T01:29:12.642Z,5.20
2019-04-22T01:31:34.316Z,5.37
2019-04-22T01:34:10.086Z,5.20
2019-04-22T01:36:51.614Z,5.23
2019-04-22T01:39:25.088Z,5.37
2019-04-22T01:42:04.639Z,5.43
2019-04-22T01:44:35.760Z,7.07
2019-04-22T01:47:00.394Z,6.00
2019-04-22T01:52:07.764Z,5.70
2019-04-22T01:54:35.690Z,5.03
2019-04-22T01:56:58.672Z,5.63
2019-04-22T01:59:25.893Z,5.40
2019-04-22T02:02:02.903Z,4.93
2019-04-22T02:04:36.821Z,5.90
2019-04-22T02:09:39.810Z,11.67
2019-04-22T02:12:11.585Z,7.57
2019-04-22T02:14:39.497Z,5.40
2019-04-22T02:17:10.795Z,5.20
2019-04-22T02:19:37.381Z,5.47
2019-04-22T02:22:11.629Z,5.30
2019-04-22T02:24:51.072Z,7.00
2019-04-22T02:29:43.208Z,5.20
2019-04-22T02:32:19.606Z,4.83
2019-04-22T02:35:02.202Z,5.33
2019-04-22T02:39:50.412Z,5.77
2019-04-22T02:44:48.628Z,6.70
2019-04-22T02:49:47.087Z,8.27
2019-04-22T02:54:58.532Z,8.67
2019-04-22T02:59:56.797Z,8.33
2019-04-22T03:04:55.621Z,8.57
2019-04-22T03:07:18.708Z,8.60
2019-04-22T03:09:55.111Z,9.17
2019-04-22T03:14:48.246Z,7.93
2019-04-22T03:22:25.911Z,8.17
2019-04-22T03:27:29.904Z,8.33
2019-04-22T03:47:52.899Z,9.23
2019-04-22T03:55:22.941Z,10.23
2019-04-22T04:00:35.695Z,9.43
2019-04-22T04:02:55.974Z,8.77
2019-04-22T04:05:33.538Z,10.17
2019-04-22T04:10:35.331Z,9.47
2019-04-22T04:12:58.182Z,10.20
2019-04-22T04:15:23.706Z,9.77
2019-04-22T04:20:28.688Z,11.43
2019-04-22T04:32:59.108Z,10.20
2019-04-22T04:36:03.395Z,9.87
2019-04-22T04:37:56.004Z,10.03
2019-04-22T04:40:31.523Z,11.77
2019-04-22T04:45:41.007Z,12.03
2019-04-22T04:48:21.133Z,9.67
2019-04-22T04:50:38.287Z,10.13
2019-04-22T04:53:20.291Z,9.97
2019-04-22T04:55:53.921Z,10.37
2019-04-22T04:58:36.886Z,10.43
2019-04-22T05:01:00.602Z,10.83
2019-04-22T05:03:32.810Z,12.33
2019-04-22T05:05:57.032Z,8.97
2019-04-22T05:08:39.155Z,9.20
2019-04-22T05:11:00.560Z,8.43
2019-04-22T05:13:35.141Z,7.50
2019-04-22T05:16:10.640Z,10.27
2019-04-22T05:21:14.646Z,5.87
2019-04-22T05:23:32.446Z,5.90
2019-04-22T05:25:57.427Z,5.47
2019-04-22T05:28:23.969Z,4.93
2019-04-22T05:30:57.182Z,5.50
2019-04-22T05:33:33.199Z,6.27
2019-04-22T05:35:56.332Z,7.00
2019-04-22T05:38:33.267Z,5.03
2019-04-22T05:40:56.378Z,5.30
2019-04-22T05:43:29.421Z,5.33
2019-04-22T05:46:00.775Z,5.70
2019-04-22T05:48:37.342Z,5.13
2019-04-22T05:50:57.711Z,5.40
2019-04-22T05:53:25.867Z,5.90
2019-04-22T05:56:03.959Z,5.43
2019-04-22T05:58:38.122Z,5.67
2019-04-22T06:01:29.347Z,5.93
2019-04-22T06:03:39.437Z,5.10
2019-04-22T06:06:12.620Z,5.83
2019-04-22T06:08:44.371Z,16.93
2019-04-22T06:11:18.451Z,5.80
2019-04-22T06:13:38.831Z,5.40
2019-04-22T06:16:09.212Z,7.70
2019-04-22T06:18:54.891Z,5.80
2019-04-22T06:21:22.562Z,5.87
2019-04-22T06:28:48.168Z,4.73
2019-04-22T06:33:54.775Z,5.47
2019-04-22T06:36:27.521Z,5.70
2019-04-22T06:38:49.937Z,5.70
2019-04-22T06:41:22.894Z,7.20
2019-04-22T06:43:58.467Z,5.03
2019-04-22T06:46:25.690Z,5.80
2019-04-22T06:48:52.752Z,5.40
2019-04-22T06:51:19.879Z,6.40
2019-04-22T06:53:59.080Z,5.53
2019-04-22T06:56:21.975Z,5.33
2019-04-22T06:58:55.142Z,5.30
2019-04-22T07:01:31.838Z,6.67
2019-04-22T07:04:01.538Z,6.83
2019-04-22T07:06:40.141Z,5.43
2019-04-22T07:11:30.727Z,11.10
2019-04-22T07:14:05.543Z,6.10
2019-04-22T07:19:02.187Z,5.30
2019-04-22T07:21:33.498Z,5.53
2019-04-22T07:24:21.480Z,5.97
2019-04-22T07:26:29.121Z,5.50
2019-04-22T07:29:06.216Z,7.07
2019-04-22T07:31:34.130Z,5.53
2019-04-22T07:34:16.422Z,5.30
2019-04-22T07:39:10.830Z,5.20
2019-04-22T07:41:39.978Z,5.90
2019-04-22T07:44:28.088Z,5.70
2019-04-22T07:46:43.055Z,6.43
2019-04-22T07:49:02.133Z,5.53
2019-04-22T07:51:41.102Z,5.63
2019-04-22T07:56:39.910Z,4.90
2019-04-22T07:59:13.859Z,5.27
2019-04-22T08:01:36.644Z,5.30
2019-04-22T08:04:32.112Z,5.33
2019-04-22T08:06:49.403Z,5.63
2019-04-22T08:09:18.111Z,5.30
2019-04-22T08:14:14.473Z,5.30
2019-04-22T08:21:47.396Z,4.87
2019-04-22T08:24:20.185Z,7.73
2019-04-22T08:26:49.787Z,6.50
2019-04-22T08:29:21.673Z,4.37
2019-04-22T08:31:49.187Z,4.73
2019-04-22T08:34:19.556Z,4.50
2019-04-22T08:37:12.249Z,4.83
2019-04-22T08:39:19.918Z,4.97
2019-04-22T08:41:43.532Z,4.43
2019-04-22T08:44:28.017Z,4.43
2019-04-22T08:46:56.178Z,4.30
2019-04-22T08:49:24.548Z,4.23
2019-04-22T08:51:49.441Z,5.20
2019-04-22T08:54:26.070Z,5.20
2019-04-22T08:56:55.535Z,6.40
2019-04-22T08:59:21.766Z,5.57
2019-04-22T09:01:53.452Z,4.93
2019-04-22T09:04:16.202Z,5.33
2019-04-22T09:09:28.444Z,5.53
2019-04-22T09:12:15.806Z,5.43
2019-04-22T09:14:32.431Z,4.53
2019-04-22T09:16:56.381Z,5.07
2019-04-22T09:19:28.428Z,6.10
2019-04-22T09:22:00.564Z,4.40
2019-04-22T09:24:29.665Z,9.10
2019-04-22T09:27:03.978Z,4.73
2019-04-22T09:29:34.147Z,4.23
2019-04-22T09:32:05.603Z,4.80
2019-04-22T09:34:33.684Z,4.50
2019-04-22T09:39:34.286Z,5.63
2019-04-22T09:42:07.902Z,4.87
2019-04-22T09:44:36.270Z,4.53
2019-04-22T09:47:06.183Z,4.90
2019-04-22T09:49:46.806Z,4.60
2019-04-22T09:52:02.967Z,5.27
2019-04-22T09:54:50.961Z,4.73
2019-04-22T09:57:09.220Z,4.83
2019-04-22T09:59:34.829Z,5.33
2019-04-22T10:02:19.600Z,4.37
2019-04-22T10:04:40.502Z,4.77
2019-04-22T10:07:13.847Z,4.43
2019-04-22T10:12:10.301Z,4.97
2019-04-22T10:17:08.837Z,4.17
2019-04-22T10:19:41.135Z,4.47
2019-04-22T10:24:43.209Z,6.83
2019-04-22T10:27:08.031Z,3.70
2019-04-22T10:29:48.478Z,4.80
2019-04-22T10:32:13.966Z,3.63
2019-04-22T10:34:31.281Z,4.57
2019-04-22T10:36:56.880Z,3.33
2019-04-22T10:39:32.845Z,8.33
2019-04-22T10:41:52.777Z,4.50
2019-04-22T10:44:21.542Z,3.63
2019-04-22T10:46:51.861Z,3.90
2019-04-22T10:49:22.291Z,3.73
2019-04-22T10:51:51.530Z,5.07
2019-04-22T10:54:21.346Z,7.57
2019-04-22T10:56:50.782Z,4.93
2019-04-22T10:59:20.620Z,3.60
2019-04-22T11:01:50.621Z,4.50
2019-04-22T11:04:19.647Z,4.23
2019-04-22T11:06:55.558Z,5.13
2019-04-22T11:09:22.090Z,5.43
2019-04-22T11:11:58.433Z,6.33
2019-04-22T11:14:21.068Z,4.90
2019-04-22T11:16:50.081Z,4.00
2019-04-22T11:19:19.435Z,4.73
2019-04-22T11:21:59.979Z,5.13
2019-04-22T11:24:18.916Z,3.73
2019-04-22T11:26:49.225Z,4.23
2019-04-22T11:29:19.565Z,4.43
2019-04-22T11:31:48.620Z,3.60
2019-04-22T11:34:17.408Z,4.77
2019-04-22T11:36:47.226Z,3.43
2019-04-22T11:39:17.009Z,4.23
2019-04-22T11:41:46.410Z,2.77
2019-04-22T11:44:17.055Z,3.00
2019-04-22T11:46:47.350Z,3.90
2019-04-22T11:49:16.416Z,4.70
2019-04-22T11:51:45.743Z,3.90
2019-04-22T11:54:14.781Z,4.27
2019-04-22T11:56:45.122Z,3.43
2019-04-22T11:59:15.075Z,2.40
2019-04-22T12:01:44.617Z,3.20
2019-04-22T12:04:13.829Z,3.30
2019-04-22T12:06:44.070Z,2.73
2019-04-22T12:09:15.359Z,3.07
2019-04-22T12:11:44.589Z,8.63
2019-04-22T12:14:13.956Z,2.77
2019-04-22T12:16:43.647Z,3.37
2019-04-22T12:19:15.658Z,3.63
2019-04-22T12:21:44.918Z,3.30
2019-04-22T12:24:15.058Z,2.93
2019-04-22T12:26:44.284Z,4.30
2019-04-22T12:29:13.335Z,2.60
2019-04-22T12:31:42.341Z,3.23
2019-04-22T12:34:11.366Z,3.17
2019-04-22T12:36:40.464Z,2.97
2019-04-22T12:39:11.435Z,3.10
2019-04-22T12:41:40.575Z,6.27
2019-04-22T12:44:09.654Z,4.47
2019-04-22T12:46:42.068Z,3.87
2019-04-22T12:49:12.194Z,3.53
2019-04-22T12:51:42.874Z,4.63
2019-04-22T12:54:13.132Z,3.10
2019-04-22T12:56:43.827Z,3.80
2019-04-22T12:59:13.997Z,3.17
2019-04-22T13:01:44.658Z,5.20
2019-04-22T13:04:17.273Z,3.93
2019-04-22T13:06:45.867Z,3.40
2019-04-22T13:09:17.614Z,10.33
2019-04-22T13:11:45.994Z,18.10
2019-04-22T13:14:15.067Z,3.20
2019-04-22T13:16:44.920Z,3.30
2019-04-22T13:19:17.104Z,3.50
2019-04-22T13:21:44.870Z,2.57
2019-04-22T13:24:15.349Z,3.20
2019-04-22T13:26:45.240Z,2.63
2019-04-22T13:29:15.064Z,2.83
2019-04-22T13:31:44.794Z,3.03
2019-04-22T13:34:21.396Z,2.27
2019-04-22T13:36:48.834Z,3.17
2019-04-22T13:39:20.879Z,3.83
2019-04-22T13:41:54.562Z,2.23
2019-04-22T13:44:21.057Z,1.90
2019-04-22T13:47:10.406Z,2.30
2019-04-22T13:49:49.469Z,2.10
2019-04-22T13:52:35.275Z,2.17
2019-04-22T13:57:14.822Z,1.83
2019-04-22T13:59:32.206Z,1.70
2019-04-22T14:02:24.324Z,1.87
2019-04-22T14:04:48.926Z,1.80
2019-04-22T14:07:19.002Z,1.90
2019-04-22T14:09:48.619Z,2.70
2019-04-22T14:12:18.377Z,5.37
2019-04-22T14:14:50.530Z,1.93
2019-04-22T14:17:18.888Z,1.97
2019-04-22T14:19:48.539Z,3.27
2019-04-22T14:22:17.932Z,1.93
2019-04-22T14:24:46.943Z,1.83
2019-04-22T14:27:28.022Z,2.13
2019-04-22T14:29:49.319Z,3.40
2019-04-22T14:34:49.038Z,4.00
2019-04-22T14:37:18.618Z,3.43
2019-04-22T14:39:48.197Z,4.07
2019-04-22T14:42:34.368Z,2.00
2019-04-22T14:44:12.632Z,3.63
2019-04-22T14:47:49.263Z,3.03
2019-04-22T14:50:14.475Z,2.60
2019-04-22T14:52:39.537Z,4.80
2019-04-22T14:55:02.885Z,3.17
2019-04-22T14:57:23.258Z,2.70
2019-04-22T14:59:53.613Z,2.40
2019-04-22T15:02:23.670Z,2.50
2019-04-22T15:04:54.229Z,6.07
2019-04-22T15:07:23.383Z,7.83
2019-04-22T15:09:52.792Z,3.20
2019-04-22T15:12:31.264Z,2.70
2019-04-22T15:14:53.398Z,2.70
2019-04-22T15:17:29.174Z,3.13
2019-04-22T15:20:03.701Z,5.63
2019-04-22T15:22:32.852Z,4.07
2019-04-22T15:25:02.982Z,2.43
2019-04-22T15:27:33.164Z,4.70
2019-04-22T15:30:03.526Z,3.60
2019-04-22T15:32:33.515Z,2.73
2019-04-22T15:35:02.753Z,4.17
2019-04-22T15:37:33.083Z,2.60
2019-04-22T15:40:02.877Z,3.93
2019-04-22T15:42:36.134Z,4.13
2019-04-22T15:45:05.340Z,3.10
2019-04-22T15:47:34.751Z,3.63
2019-04-22T15:50:05.970Z,9.30
2019-04-22T15:52:41.987Z,3.30
2019-04-22T15:55:06.743Z,4.80
2019-04-22T15:57:37.882Z,3.90
2019-04-22T16:00:22.385Z,3.30
2019-04-22T16:02:37.559Z,3.60
2019-04-22T16:05:06.805Z,7.03
2019-04-22T16:07:36.047Z,3.10
2019-04-22T16:10:05.941Z,4.47
2019-04-22T16:12:46.471Z,4.03
2019-04-22T16:15:09.567Z,3.43
2019-04-22T16:17:38.459Z,2.77
2019-04-22T16:20:09.017Z,5.17
2019-04-22T16:22:57.126Z,2.67
2019-04-22T16:25:45.494Z,2.03
2019-04-22T16:28:17.761Z,2.60
2019-04-22T16:30:46.813Z,2.40
2019-04-22T16:33:17.447Z,2.30
2019-04-22T16:35:48.959Z,3.50
2019-04-22T16:38:19.453Z,3.20
2019-04-22T16:40:52.627Z,4.47
2019-04-22T16:43:22.561Z,3.10
2019-04-22T16:45:51.961Z,5.87
2019-04-22T16:48:21.927Z,4.57
2019-04-22T16:50:52.813Z,4.03
2019-04-22T16:53:23.221Z,5.60
2019-04-22T16:55:52.977Z,4.90
2019-04-22T16:58:23.172Z,10.17
2019-04-22T17:00:52.506Z,4.00
2019-04-22T17:03:30.799Z,7.23
2019-04-22T17:06:23.404Z,7.87
2019-04-22T17:08:52.862Z,5.33
2019-04-22T17:11:22.258Z,4.23
2019-04-22T17:13:51.318Z,6.00
2019-04-22T17:16:20.560Z,4.67
2019-04-22T17:18:50.059Z,3.00
2019-04-22T17:21:19.675Z,4.53
2019-04-22T17:23:49.833Z,7.63
2019-04-22T17:26:19.064Z,5.13
2019-04-22T17:28:49.319Z,12.53
2019-04-22T17:31:18.879Z,5.73
2019-04-22T17:33:48.837Z,4.87
2019-04-22T17:36:18.537Z,4.93
2019-04-22T17:38:56.410Z,4.33
2019-04-22T17:41:30.267Z,2.90
2019-04-22T17:44:14.456Z,4.10
2019-04-22T17:46:40.275Z,4.30
2019-04-22T17:49:21.872Z,3.80
2019-04-22T17:52:10.792Z,6.87
2019-04-22T17:54:43.449Z,3.93
2019-04-22T17:57:10.005Z,4.47
2019-04-22T17:59:41.797Z,5.87
2019-04-22T18:02:13.350Z,5.60
2019-04-22T18:04:25.384Z,6.23
2019-04-22T18:07:24.553Z,4.83
2019-04-22T18:10:16.461Z,5.27
2019-04-22T18:12:27.119Z,13.13
2019-04-22T18:14:57.685Z,5.30
2019-04-22T18:17:17.339Z,8.30
2019-04-22T18:19:47.707Z,5.07
2019-04-22T18:22:13.620Z,4.77
2019-04-22T18:24:46.401Z,3.03
2019-04-22T18:27:34.727Z,5.73
2019-04-22T18:29:48.577Z,4.17
2019-04-22T18:32:16.801Z,4.60
2019-04-22T18:34:44.555Z,4.73
2019-04-22T18:37:22.328Z,4.67
2019-04-22T18:40:02.114Z,2.80
2019-04-22T18:42:25.669Z,3.70
2019-04-22T18:45:23.333Z,4.03
2019-04-22T18:47:37.156Z,6.57
2019-04-22T18:50:03.325Z,6.90
2019-04-22T18:53:07.094Z,5.57
2019-04-22T18:55:48.980Z,3.57
2019-04-22T18:58:21.443Z,5.97
2019-04-22T19:00:37.778Z,4.47
2019-04-22T19:03:16.487Z,4.60
2019-04-22T19:06:03.517Z,5.90
2019-04-22T19:08:34.626Z,6.47
2019-04-22T19:11:08.279Z,5.77
2019-04-22T19:18:41.532Z,5.37
2019-04-22T19:21:25.268Z,7.03
2019-04-22T19:23:59.765Z,7.73
2019-04-22T19:26:49.983Z,8.40
2019-04-22T19:29:25.978Z,9.70
2019-04-22T19:31:52.364Z,10.47
2019-04-22T19:34:20.488Z,8.23
2019-04-22T19:37:00.084Z,7.63
2019-04-22T19:39:26.190Z,12.80
2019-04-22T19:42:09.558Z,8.40
2019-04-22T19:44:41.178Z,8.87
2019-04-22T19:47:28.522Z,8.97
2019-04-22T19:49:48.078Z,8.10
2019-04-22T19:54:43.941Z,11.00
2019-04-22T19:57:08.159Z,8.30
2019-04-22T20:00:18.489Z,9.67
2019-04-22T20:03:15.731Z,10.47
2019-04-22T20:05:50.857Z,8.50
2019-04-22T20:08:21.502Z,11.87
2019-04-22T20:10:58.957Z,9.90
2019-04-22T20:13:37.250Z,12.17
2019-04-22T20:15:58.361Z,13.27
2019-04-22T20:21:18.262Z,10.87
2019-04-22T20:23:37.221Z,9.07
2019-04-22T20:26:13.604Z,13.47
2019-04-22T20:28:49.203Z,9.93
2019-04-22T20:31:24.649Z,13.47
2019-04-22T20:34:03.463Z,12.03
2019-04-22T20:36:49.089Z,10.07
2019-04-22T20:38:53.617Z,9.53
2019-04-22T20:41:24.959Z,11.10
2019-04-22T20:44:06.566Z,13.27
2019-04-22T20:46:36.238Z,11.53
2019-04-22T20:49:07.729Z,11.83
2019-04-22T20:51:50.224Z,13.53
2019-04-22T20:54:11.989Z,10.03
2019-04-22T20:56:44.072Z,9.97
2019-04-22T20:59:24.056Z,10.27
2019-04-22T21:01:55.202Z,10.50
2019-04-22T21:04:19.594Z,12.67
2019-04-22T21:06:58.323Z,10.17
2019-04-22T21:09:35.421Z,10.27
2019-04-22T21:11:59.110Z,9.70
2019-04-22T21:14:28.631Z,10.10
2019-04-22T21:17:09.616Z,11.70
2019-04-22T21:19:41.407Z,10.00
2019-04-22T21:22:16.466Z,11.70
2019-04-22T21:24:42.150Z,10.97
2019-04-22T21:27:13.981Z,10.43
2019-04-22T21:29:38.766Z,13.47
2019-04-22T21:32:15.944Z,9.97
2019-04-22T21:34:59.639Z,10.63
2019-04-22T21:37:25.080Z,10.27
2019-04-22T21:39:46.307Z,11.03
2019-04-22T21:42:22.570Z,9.60
2019-04-22T21:44:51.151Z,10.93
2019-04-22T21:47:50.166Z,13.03
2019-04-22T21:50:19.660Z,9.93
2019-04-22T21:52:27.608Z,12.37
2019-04-22T21:55:07.538Z,9.80
2019-04-22T21:57:46.159Z,9.70
2019-04-22T22:00:25.131Z,8.60
2019-04-22T22:02:45.635Z,9.90
2019-04-22T22:05:12.527Z,10.60
2019-04-22T22:07:32.872Z,9.87
2019-04-22T22:10:22.866Z,10.17
2019-04-22T22:12:56.877Z,9.57
2019-04-22T22:15:25.862Z,9.90
2019-04-22T22:17:54.498Z,9.50
2019-04-22T22:20:22.704Z,12.17
2019-04-22T22:23:09.126Z,10.23
2019-04-22T22:25:35.016Z,9.87
2019-04-22T22:28:17.043Z,9.93
2019-04-22T22:33:15.384Z,10.10
2019-04-22T22:35:45.564Z,9.37
2019-04-22T22:38:20.574Z,10.17
2019-04-22T22:40:30.617Z,10.77
2019-04-22T22:43:05.416Z,10.27
2019-04-22T22:45:39.277Z,10.03
2019-04-22T22:48:28.183Z,9.70
2019-04-22T22:50:50.794Z,9.60
2019-04-22T22:55:50.654Z,9.47
2019-04-22T22:58:29.215Z,10.13
2019-04-22T23:00:53.577Z,10.33
2019-04-22T23:03:49.817Z,9.07
2019-04-22T23:06:03.225Z,9.73
2019-04-22T23:08:31.122Z,9.70
2019-04-22T23:11:27.388Z,9.27
2019-04-22T23:13:49.491Z,10.37
2019-04-22T23:15:57.273Z,9.40
2019-04-22T23:18:14.012Z,9.60
2019-04-22T23:20:47.661Z,10.23
2019-04-22T23:23:33.224Z,9.30
2019-04-22T23:26:17.177Z,9.07
2019-04-22T23:28:53.523Z,10.40
2019-04-22T23:31:23.627Z,9.60
2019-04-22T23:34:01.052Z,9.50
2019-04-22T23:37:11.837Z,9.50
2019-04-22T23:39:56.461Z,8.77
2019-04-22T23:44:49.623Z,9.10
2019-04-22T23:47:30.955Z,9.37
2019-04-22T23:50:09.105Z,8.53
2019-04-22T23:52:58.854Z,10.47
2019-04-22T23:55:38.411Z,8.53
2019-04-22T23:58:11.929Z,8.87
